Time;durP1;ratioP1;P1;durP2;ratioP2;P2;SDS_P1;SDS_P2;PMS_P1;PMS_P2;Temp;Humidity;BMP_temperature;BMP_pressure;BME280_temperature;BME280_humidity;BME280_pressure;Samples;Min_cycle;Max_cycle;Signal;HPM_P1;HPM_P2
2024/01/17 00:02:44;;;;;;;46.97;31.27;;;;;;;0.40;56.28;99478.09;4250647;33;20557;-93
2024/01/17 00:05:14;;;;;;;51.05;32.75;;;;;;;0.40;56.08;99469.44;4252328;33;20120;-93
2024/01/17 00:08:09;;;;;;;47.22;34.53;;;;;;;0.30;56.31;99466.28;4238367;33;20164;-93
2024/01/17 00:10:45;;;;;;;52.20;36.10;;;;;;;0.21;56.75;99467.44;4260303;33;20148;-92
2024/01/17 00:13:27;;;;;;;;;;;;;;;0.24;56.81;99466.50;4264974;33;20152;-93
2024/01/17 00:16:33;;;;;;;47.10;33.25;;;;;;;0.24;57.10;99458.69;4266150;33;20021;-93
2024/01/17 00:19:21;;;;;;;52.22;34.25;;;;;;;0.46;56.56;99456.16;4263745;33;20140;-93
2024/01/17 00:22:14;;;;;;;44.03;33.22;;;;;;;0.21;57.78;99469.22;4265076;33;20156;-93
2024/01/17 00:25:06;;;;;;;47.85;34.17;;;;;;;0.38;57.39;99469.47;4266381;33;20152;-93
2024/01/17 00:27:44;;;;;;;46.28;32.17;;;;;;;0.32;57.61;99464.50;4266850;33;20152;-93
2024/01/17 00:30:48;;;;;;;48.42;32.83;;;;;;;0.22;57.86;99463.09;4251764;33;20157;-93
2024/01/17 00:33:39;;;;;;;46.60;32.53;;;;;;;0.08;57.89;99465.28;4251846;33;20410;-93
2024/01/17 00:36:12;;;;;;;47.47;33.58;;;;;;;0.03;57.62;99455.03;4253533;33;20125;-93
2024/01/17 00:39:22;;;;;;;46.90;34.55;;;;;;;0.11;57.12;99458.22;4253807;33;20169;-93
2024/01/17 00:42:07;;;;;;;44.03;32.35;;;;;;;0.00;57.20;99452.56;4252631;33;20160;-93
2024/01/17 00:45:14;;;;;;;45.67;32.22;;;;;;;0.13;56.62;99453.84;4281387;33;20191;-93
2024/01/17 00:48:08;;;;;;;42.17;31.23;;;;;;;-0.10;57.06;99454.59;4253400;33;20463;-93
2024/01/17 00:51:43;;;;;;;49.25;34.08;;;;;;;-0.04;56.83;99449.19;4267067;33;20441;-93
2024/01/17 00:54:36;;;;;;;46.10;32.15;;;;;;;0.00;56.51;99444.75;4269598;33;20160;-93
2024/01/17 00:57:44;;;;;;;50.65;32.58;;;;;;;-0.19;56.99;99436.69;4260657;33;20164;-93
2024/01/17 01:00:26;;;;;;;49.80;32.50;;;;;;;-0.17;57.09;99434.84;4252974;33;20150;-94
2024/01/17 01:06:22;;;;;;;48.45;33.05;;;;;;;-0.15;57.48;99430.47;4263971;33;20160;-93
2024/01/17 01:09:30;;;;;;;45.63;34.42;;;;;;;-0.32;58.58;99433.62;4266363;33;20129;-93
2024/01/17 01:12:00;;;;;;;45.83;32.42;;;;;;;-0.26;58.02;99441.22;4269148;33;20177;-93
2024/01/17 01:17:51;;;;;;;45.53;32.28;;;;;;;-0.34;57.64;99430.22;4295171;33;20210;-93
2024/01/17 01:20:33;;;;;;;49.08;35.33;;;;;;;-0.23;57.38;99448.09;4252908;33;20177;-93
2024/01/17 01:23:27;;;;;;;47.92;34.38;;;;;;;-0.21;56.60;99446.28;4251671;33;20170;-93
2024/01/17 01:26:20;;;;;;;46.20;33.53;;;;;;;-0.38;56.91;99438.16;4263200;33;20153;-93
2024/01/17 01:29:33;;;;;;;46.25;32.80;;;;;;;-0.58;57.31;99444.00;4280653;33;20159;-93
2024/01/17 01:33:10;;;;;;;45.25;32.55;;;;;;;-0.58;57.67;99439.66;4262565;33;20189;-93
2024/01/17 01:36:18;;;;;;;47.13;32.05;;;;;;;-0.78;58.21;99419.47;4279875;33;20180;-93
2024/01/17 01:39:21;;;;;;;49.78;32.72;;;;;;;-0.86;58.82;99433.59;4281712;33;20148;-93
2024/01/17 01:42:14;;;;;;;;;;;;;;;-0.86;58.94;99424.03;4295019;33;20156;-93
2024/01/17 01:45:34;;;;;;;38.88;29.02;;;;;;;-0.93;59.19;99413.87;4265528;33;20036;-93
2024/01/17 01:48:35;;;;;;;39.47;31.48;;;;;;;-0.49;57.92;99412.47;4267554;33;20175;-93
2024/01/17 01:51:43;;;;;;;41.63;30.80;;;;;;;-0.96;58.90;99391.41;4267943;33;20127;-93
2024/01/17 02:00:40;;;;;;;45.30;29.08;;;;;;;-0.94;58.85;99370.56;4297483;33;20135;-93
2024/01/17 02:51:25;;;;;;;36.88;24.42;;;;;;;-1.16;63.26;99342.59;4425588;28;20125;-93
2024/01/17 02:54:32;;;;;;;35.42;23.30;;;;;;;-1.09;63.69;99354.53;4242411;33;20140;-93
2024/01/17 03:07:23;;;;;;;37.20;21.30;;;;;;;-0.67;62.41;99350.59;4213900;34;20122;-93
2024/01/17 03:10:30;;;;;;;30.65;21.50;;;;;;;-0.13;60.37;99352.28;4196242;34;20161;-93
2024/01/17 03:13:43;;;;;;;32.17;23.80;;;;;;;-0.39;61.04;99350.59;4214416;34;20169;-93
2024/01/17 03:16:42;;;;;;;35.78;22.60;;;;;;;-0.68;61.83;99349.75;4229872;34;20172;-93
2024/01/17 03:22:42;;;;;;;34.60;23.35;;;;;;;-0.37;60.33;99317.53;4239033;34;20138;-94
2024/01/17 03:25:44;;;;;;;30.90;21.92;;;;;;;-0.36;60.86;99332.22;4255481;33;20156;-93
2024/01/17 03:28:39;;;;;;;31.87;21.73;;;;;;;-0.68;61.86;99313.34;4264999;33;20176;-94
2024/01/17 03:31:22;;;;;;;32.67;20.75;;;;;;;-0.64;61.81;99307.13;4254497;33;20161;-94
2024/01/17 03:37:32;;;;;;;31.12;23.35;;;;;;;-0.85;62.12;99300.91;4276908;33;20172;-93
2024/01/17 03:40:31;;;;;;;33.47;24.55;;;;;;;-1.18;63.33;99305.44;4298215;33;20140;-94
2024/01/17 03:43:27;;;;;;;35.83;23.40;;;;;;;-0.82;62.54;99303.41;4291538;33;20164;-94
2024/01/17 03:46:25;;;;;;;32.78;23.60;;;;;;;-0.98;62.94;99288.34;4297627;33;20167;-94
2024/01/17 03:49:59;;;;;;;37.92;24.30;;;;;;;-1.21;63.55;99276.91;4284336;33;20160;-93
2024/01/17 03:52:42;;;;;;;33.40;21.70;;;;;;;-1.21;63.58;99257.88;4269500;33;20128;-93
2024/01/17 03:55:55;;;;;;;36.33;23.95;;;;;;;-0.91;62.70;99279.44;4279655;33;20144;-93
2024/01/17 03:58:59;;;;;;;32.42;21.65;;;;;;;-0.96;62.95;99284.78;4269337;33;20119;-93
2024/01/17 04:01:54;;;;;;;29.65;21.67;;;;;;;-1.10;63.41;99284.37;4253840;33;20160;-93
2024/01/17 04:07:43;;;;;;;34.20;21.73;;;;;;;-1.01;62.83;99260.69;4278333;33;20161;-93
2024/01/17 04:10:31;;;;;;;32.35;21.55;;;;;;;-1.34;64.38;99280.81;4296353;33;20175;-93
2024/01/17 04:13:51;;;;;;;33.90;22.95;;;;;;;-1.18;63.81;99270.78;4271611;33;20104;-93
2024/01/17 04:16:50;;;;;;;;;;;;;;;-1.47;64.53;99256.91;4308956;33;20167;-93
2024/01/17 04:22:59;;;;;;;28.45;21.42;;;;;;;-1.03;63.24;99242.53;4253610;33;20480;-93
2024/01/17 04:25:54;;;;;;;32.85;22.23;;;;;;;-0.99;63.11;99243.25;4269675;33;20183;-93
2024/01/17 04:29:02;;;;;;;33.97;23.50;;;;;;;-1.33;64.04;99236.56;4255125;33;20157;-92
2024/01/17 04:32:08;;;;;;;31.90;22.87;;;;;;;-1.63;64.74;99212.38;4296145;33;20176;-93
2024/01/17 04:35:26;;;;;;;34.45;22.25;;;;;;;-1.52;65.11;99206.84;4254773;33;20136;-92
2024/01/17 04:38:21;;;;;;;29.67;20.75;;;;;;;-1.04;63.76;99206.19;4282308;33;20163;-92
2024/01/17 04:41:36;;;;;;;33.70;22.13;;;;;;;-0.78;63.15;99218.31;4279541;33;20176;-93
2024/01/17 04:44:30;;;;;;;31.55;23.48;;;;;;;-1.98;66.81;99213.44;4278569;33;20163;-92
2024/01/17 04:47:35;;;;;;;30.70;22.80;;;;;;;-1.45;65.69;99216.16;4251757;33;20161;-92
2024/01/17 04:50:58;;;;;;;33.30;22.00;;;;;;;-1.46;65.34;99222.28;4248588;33;20154;-93
2024/01/17 04:54:03;;;;;;;33.88;22.55;;;;;;;-1.34;65.29;99223.63;4249147;33;20169;-92
2024/01/17 04:57:11;;;;;;;29.60;20.37;;;;;;;-1.48;65.75;99218.84;4284768;33;20164;-93
2024/01/17 05:00:17;;;;;;;30.35;21.60;;;;;;;-1.58;66.41;99207.06;4250106;33;20141;-92
2024/01/17 05:03:26;;;;;;;32.72;23.40;;;;;;;-1.50;65.89;99220.66;4264996;33;20152;-92
2024/01/17 05:07:00;;;;;;;37.25;21.17;;;;;;;-1.41;65.76;99209.13;4261540;33;20354;-92
2024/01/17 05:10:00;;;;;;;31.98;21.65;;;;;;;-1.69;66.39;99212.59;4258861;33;20152;-93
2024/01/17 05:13:28;;;;;;;32.35;22.25;;;;;;;-1.10;65.08;99209.00;4261990;33;20153;-93
2024/01/17 05:16:39;;;;;;;31.65;21.25;;;;;;;-1.38;65.80;99212.47;4275211;33;20163;-92
2024/01/17 05:20:09;;;;;;;33.35;22.50;;;;;;;-1.38;65.88;99217.69;4218532;34;20437;-93
2024/01/17 05:23:04;;;;;;;32.38;21.33;;;;;;;-1.37;65.58;99210.72;4246348;33;20165;-94
2024/01/17 05:26:19;;;;;;;31.90;21.70;;;;;;;-1.31;65.15;99190.59;4260294;33;20172;-92
2024/01/17 05:29:44;;;;;;;29.27;20.77;;;;;;;-1.05;64.90;99202.72;4230972;34;20518;-92
2024/01/17 05:33:10;;;;;;;32.20;21.35;;;;;;;-1.26;65.30;99208.66;4232409;33;20168;-93
2024/01/17 05:36:28;;;;;;;28.92;20.37;;;;;;;-0.99;64.76;99209.47;4219838;34;20157;-92
2024/01/17 05:39:30;;;;;;;31.77;21.80;;;;;;;-0.93;64.48;99209.28;4259398;33;20165;-92
2024/01/17 05:42:01;;;;;;;36.33;21.40;;;;;;;-1.09;64.96;99208.09;4247247;33;20433;-92
2024/01/17 05:45:22;;;;;;;34.25;22.58;;;;;;;-1.68;67.08;99203.88;4234573;33;20160;-92
2024/01/17 05:48:06;;;;;;;33.72;20.88;;;;;;;-1.37;66.01;99193.37;4258782;33;20160;-92
2024/01/17 05:50:59;;;;;;;29.08;19.67;;;;;;;-1.18;65.51;99204.03;4247151;33;20153;-92
2024/01/17 05:54:04;;;;;;;27.48;19.98;;;;;;;-0.75;64.16;99200.84;4248220;33;20141;-92
2024/01/17 05:57:11;;;;;;;32.50;21.45;;;;;;;-1.20;65.10;99200.63;4260868;33;20156;-92
2024/01/17 05:59:52;;;;;;;29.98;21.37;;;;;;;-1.24;65.64;99197.28;4246938;33;20144;-92
2024/01/17 06:02:22;;;;;;;31.30;20.08;;;;;;;-1.11;65.48;99182.16;4254526;33;20140;-92
2024/01/17 06:04:57;;;;;;;33.58;21.00;;;;;;;-1.05;65.26;99187.13;4262009;33;20164;-92
2024/01/17 06:07:45;;;;;;;32.60;20.88;;;;;;;-1.33;66.09;99189.78;4245051;33;20141;-92
2024/01/17 06:10:37;;;;;;;34.53;22.62;;;;;;;-1.30;65.96;99186.25;4246909;33;20137;-92
2024/01/17 06:13:08;;;;;;;35.03;23.70;;;;;;;-1.20;65.88;99187.63;4259654;33;20160;-92
2024/01/17 06:16:20;;;;;;;32.17;23.45;;;;;;;-1.25;66.20;99186.94;4261424;33;20437;-92
2024/01/17 06:19:00;;;;;;;33.72;22.90;;;;;;;-0.72;64.46;99180.81;4260637;33;20141;-92
2024/01/17 06:22:26;;;;;;;34.10;22.42;;;;;;;-1.05;65.41;99174.12;4249145;33;20120;-92
2024/01/17 06:25:00;;;;;;;28.98;20.98;;;;;;;-0.57;63.93;99177.69;4261625;33;20152;-92
2024/01/17 06:27:37;;;;;;;34.00;21.80;;;;;;;-0.38;63.52;99183.09;4248404;33;20157;-92
2024/01/17 06:30:50;;;;;;;31.48;20.12;;;;;;;-0.64;64.31;99184.00;4261509;33;20144;-92
2024/01/17 06:33:50;;;;;;;27.08;19.20;;;;;;;-0.62;64.53;99187.41;4260219;33;20152;-92
2024/01/17 06:36:42;;;;;;;29.87;18.75;;;;;;;-0.91;65.38;99175.41;4261619;33;20499;-92
2024/01/17 06:39:38;;;;;;;30.25;19.85;;;;;;;-0.73;64.82;99171.34;4261795;33;20140;-92
2024/01/17 06:42:17;;;;;;;32.63;21.30;;;;;;;-0.50;64.56;99174.81;4261570;33;20141;-92
2024/01/17 06:45:15;;;;;;;25.88;19.23;;;;;;;-0.71;64.92;99187.72;4248685;33;20160;-92
2024/01/17 06:47:48;;;;;;;27.90;19.75;;;;;;;-0.55;64.48;99200.16;4261419;33;20144;-92
2024/01/17 06:50:19;;;;;;;30.48;20.35;;;;;;;-0.31;63.89;99195.84;4261959;33;20145;-92
2024/01/17 06:52:55;;;;;;;25.37;19.48;;;;;;;-0.35;64.05;99183.00;4261521;33;20183;-92
2024/01/17 06:55:26;;;;;;;29.33;20.35;;;;;;;-0.25;63.92;99172.16;4261312;33;20148;-92
2024/01/17 06:57:59;;;;;;;30.60;21.62;;;;;;;-0.47;64.03;99173.88;4262697;33;20152;-93
2024/01/17 07:00:29;;;;;;;27.17;20.05;;;;;;;-0.38;63.82;99170.06;4263292;33;20442;-92
2024/01/17 07:03:19;;;;;;;32.42;21.40;;;;;;;-0.03;63.05;99169.63;4263284;33;20156;-92
2024/01/17 07:05:55;;;;;;;29.00;21.37;;;;;;;-0.68;64.80;99169.41;4261893;33;20128;-92
2024/01/17 07:08:29;;;;;;;31.33;21.67;;;;;;;-0.29;63.81;99170.56;4263541;33;20136;-92
2024/01/17 07:11:11;;;;;;;33.58;21.48;;;;;;;-0.18;63.65;99167.59;4262888;33;20433;-92
2024/01/17 07:14:10;;;;;;;29.77;20.62;;;;;;;-0.54;64.77;99161.97;4255482;33;20443;-92
2024/01/17 07:16:41;;;;;;;30.85;19.87;;;;;;;-0.74;64.97;99154.87;4263534;33;20152;-92
2024/01/17 07:19:46;;;;;;;28.60;25.52;;;;;;;-0.34;63.78;99145.63;4263266;33;20132;-92
2024/01/17 07:22:24;;;;;;;34.63;22.10;;;;;;;-0.29;64.21;99138.50;4262405;33;20166;-93
2024/01/17 07:24:54;;;;;;;25.73;18.55;;;;;;;-0.58;64.83;99131.75;4261987;33;20176;-93
2024/01/17 07:27:28;;;;;;;29.77;21.10;;;;;;;-0.23;63.98;99132.22;4262896;33;20135;-92
2024/01/17 07:29:58;;;;;;;32.10;23.02;;;;;;;-0.32;64.29;99138.59;4263290;33;20136;-93
2024/01/17 07:32:42;;;;;;;31.35;20.98;;;;;;;-0.17;63.80;99131.97;4263265;33;20152;-93
2024/01/17 07:35:15;;;;;;;28.50;19.73;;;;;;;-0.75;64.92;99140.19;4263686;33;20424;-93
2024/01/17 07:37:46;;;;;;;26.20;19.48;;;;;;;-0.41;64.50;99138.94;4263024;33;20140;-93
2024/01/17 07:41:14;;;;;;;28.42;20.08;;;;;;;-0.13;63.66;99139.59;4304709;33;20167;-93
2024/01/17 07:43:49;;;;;;;26.35;20.50;;;;;;;-0.61;65.01;99129.25;4292647;33;20164;-93
2024/01/17 07:46:31;;;;;;;38.72;20.40;;;;;;;-0.26;63.72;99122.75;4305927;33;20135;-93
2024/01/17 07:49:26;;;;;;;27.40;18.60;;;;;;;-0.38;64.43;99125.84;4295135;33;20155;-93
2024/01/17 07:52:38;;;;;;;29.58;19.85;;;;;;;-0.37;64.08;99124.91;4305800;33;20148;-93
2024/01/17 07:55:20;;;;;;;27.33;19.87;;;;;;;-0.40;64.22;99106.81;4304527;33;20132;-93
2024/01/17 07:57:59;;;;;;;32.88;19.65;;;;;;;-0.31;63.99;99114.28;4292435;33;20135;-93
2024/01/17 08:00:30;;;;;;;32.85;20.40;;;;;;;-0.64;64.84;99127.62;4305693;33;20186;-93
2024/01/17 08:03:09;;;;;;;29.12;20.02;;;;;;;-0.38;64.40;99118.88;4305307;33;20729;-93
2024/01/17 08:06:03;;;;;;;36.85;26.58;;;;;;;-0.61;65.22;99119.72;4305677;33;20123;-93
2024/01/17 08:08:56;;;;;;;;;;;;;;;-0.23;63.80;99114.84;4292478;33;20151;-93
2024/01/17 08:11:38;;;;;;;31.62;24.73;;;;;;;-0.27;63.71;99121.06;4292775;33;20322;-93
2024/01/17 08:17:09;;;;;;;51.47;45.72;;;;;;;-0.25;63.75;99124.47;4306060;33;20158;-93
2024/01/17 08:19:45;;;;;;;40.10;29.55;;;;;;;-0.26;64.41;99117.56;4304739;33;20187;-93
2024/01/17 08:22:15;;;;;;;31.43;23.33;;;;;;;-0.33;64.63;99123.91;4304321;33;20155;-93
2024/01/17 08:24:47;;;;;;;26.87;21.42;;;;;;;0.13;63.42;99111.72;4319988;33;20147;-93
2024/01/17 08:27:23;;;;;;;28.83;19.90;;;;;;;0.21;62.88;99114.88;4308539;33;20171;-93
2024/01/17 08:30:19;;;;;;;28.95;20.48;;;;;;;-0.20;64.09;99124.28;4321577;33;20148;-93
2024/01/17 08:32:48;;;;;;;26.65;19.30;;;;;;;0.19;62.89;99112.31;4330396;33;20138;-93
2024/01/17 08:35:24;;;;;;;26.17;18.48;;;;;;;0.01;63.09;99107.84;4320997;33;20139;-93
2024/01/17 08:37:56;;;;;;;29.05;18.90;;;;;;;-0.09;63.66;99112.53;4320581;33;20143;-94
2024/01/17 08:40:28;;;;;;;31.23;21.15;;;;;;;0.06;63.29;99105.06;4320768;33;20155;-93
2024/01/17 08:43:03;;;;;;;24.58;19.45;;;;;;;-0.15;63.95;99109.34;4321944;33;20155;-94
2024/01/17 08:45:44;;;;;;;49.42;22.33;;;;;;;0.03;63.81;99099.97;4320949;33;20167;-93
2024/01/17 08:48:14;;;;;;;24.75;19.02;;;;;;;-0.06;63.86;99102.03;4318245;33;20796;-93
2024/01/17 08:51:05;;;;;;;29.48;21.60;;;;;;;0.02;64.01;99106.09;4305401;33;20159;-93
2024/01/17 08:53:47;;;;;;;28.85;19.85;;;;;;;0.03;64.25;99095.59;4306991;33;20164;-93
2024/01/17 08:56:35;;;;;;;30.33;21.52;;;;;;;-0.18;65.27;99089.47;4306483;33;20126;-93
2024/01/17 08:59:04;;;;;;;28.62;20.48;;;;;;;-0.09;65.05;99099.53;4329214;33;20519;-93
2024/01/17 09:01:37;;;;;;;35.80;24.60;;;;;;;-0.11;65.59;99090.09;4335845;33;20139;-93
2024/01/17 09:04:15;;;;;;;27.42;18.33;;;;;;;-0.01;65.42;99091.41;4335482;33;20143;-93
2024/01/17 09:06:51;;;;;;;38.42;24.20;;;;;;;-0.19;65.70;99081.75;4335578;33;20163;-93
2024/01/17 09:09:25;;;;;;;28.92;21.23;;;;;;;-0.25;66.03;99088.00;4335345;33;20162;-93
2024/01/17 09:12:03;;;;;;;34.92;21.65;;;;;;;0.14;65.02;99069.97;4335930;33;20151;-94
2024/01/17 09:14:43;;;;;;;43.10;27.65;;;;;;;-0.18;65.90;99067.81;4335920;33;20143;-93
2024/01/17 09:17:15;;;;;;;45.28;26.17;;;;;;;0.23;65.36;99068.75;4322435;33;20139;-93
2024/01/17 09:19:54;;;;;;;39.05;24.42;;;;;;;0.14;65.67;99069.13;4318541;33;20154;-93
2024/01/17 09:22:32;;;;;;;34.13;24.27;;;;;;;0.08;65.93;99066.75;4319764;33;20152;-93
2024/01/17 09:25:09;;;;;;;38.70;23.80;;;;;;;0.10;66.38;99046.72;4308062;33;20147;-93
2024/01/17 09:27:45;;;;;;;38.28;26.27;;;;;;;0.30;66.24;99035.50;4309055;33;20159;-93
2024/01/17 09:30:36;;;;;;;39.45;28.80;;;;;;;0.20;66.42;99032.44;4321056;33;20184;-93
2024/01/17 09:33:08;;;;;;;32.60;25.23;;;;;;;0.22;66.43;99034.03;4316871;33;20163;-93
2024/01/17 09:35:44;;;;;;;37.70;24.67;;;;;;;0.49;65.75;99042.47;4321521;33;20163;-93
2024/01/17 09:38:33;;;;;;;43.55;25.58;;;;;;;-0.65;69.43;99032.25;4320357;33;20142;-93
2024/01/17 09:41:18;;;;;;;40.15;24.50;;;;;;;-0.22;68.37;99027.19;4320631;33;20119;-93
2024/01/17 09:43:53;;;;;;;55.40;29.52;;;;;;;0.19;67.27;99013.31;4320162;33;20144;-93
2024/01/17 09:46:40;;;;;;;33.10;21.37;;;;;;;-0.07;68.41;99013.56;4320598;33;20552;-93
2024/01/17 09:49:12;;;;;;;27.30;18.60;;;;;;;-0.14;68.85;99005.13;4320053;33;20447;-93
2024/01/17 09:52:05;;;;;;;29.77;20.90;;;;;;;-0.23;69.17;98989.03;4320594;33;20139;-93
2024/01/17 09:55:15;;;;;;;30.25;21.02;;;;;;;0.18;68.41;98977.75;4320536;33;20139;-93
2024/01/17 09:58:12;;;;;;;27.65;18.08;;;;;;;-0.10;69.49;98962.44;4319833;33;20127;-93
2024/01/17 10:01:00;;;;;;;44.30;26.87;;;;;;;-0.13;69.98;98959.09;4320157;33;20147;-93
2024/01/17 10:03:34;;;;;;;35.00;22.25;;;;;;;-0.02;70.19;98955.16;4320007;33;20158;-93
2024/01/17 10:06:27;;;;;;;38.30;27.45;;;;;;;0.22;69.03;98947.22;4307495;33;20151;-93
2024/01/17 10:09:24;;;;;;;41.10;25.80;;;;;;;0.21;69.55;98935.97;4320559;33;20151;-93
2024/01/17 10:12:31;;;;;;;36.05;25.73;;;;;;;0.41;68.65;98939.47;4319076;33;20151;-93
2024/01/17 10:15:26;;;;;;;38.28;25.10;;;;;;;-0.10;70.27;98949.41;4319752;33;20151;-93
2024/01/17 10:18:30;;;;;;;36.38;25.35;;;;;;;0.41;68.71;98923.84;4319638;33;20135;-93
2024/01/17 10:21:46;;;;;;;44.13;29.92;;;;;;;0.53;68.24;98901.59;4320677;33;20410;-93
2024/01/17 10:24:33;;;;;;;44.95;30.50;;;;;;;0.35;69.22;98896.28;4257175;33;20530;-94
2024/01/17 10:27:37;;;;;;;41.63;29.70;;;;;;;0.72;68.17;98895.50;4262688;33;20149;-93
2024/01/17 10:30:27;;;;;;;42.28;27.80;;;;;;;0.37;69.06;98894.47;4262923;33;20526;-93
2024/01/17 10:33:22;;;;;;;42.13;28.15;;;;;;;0.41;68.91;98864.75;4263596;33;20129;-93
2024/01/17 10:40:05;;;;;;;47.47;32.97;;;;;;;1.51;72.86;98887.47;4264337;33;20156;-94
2024/01/17 10:42:42;;;;;;;39.22;26.92;;;;;;;2.21;65.55;98881.31;4262827;33;20145;-94
2024/01/17 10:45:42;;;;;;;36.90;26.57;;;;;;;1.32;65.96;98865.78;4264321;33;20136;-94
2024/01/17 10:48:32;;;;;;;36.10;28.05;;;;;;;1.26;66.30;98869.53;4263739;33;20184;-94
2024/01/17 10:51:25;;;;;;;44.65;27.67;;;;;;;1.04;66.70;98850.59;4262415;33;20526;-94
2024/01/17 10:54:08;;;;;;;37.72;25.52;;;;;;;1.06;66.91;98841.75;4263554;33;20152;-94
2024/01/17 10:56:53;;;;;;;37.42;25.05;;;;;;;0.89;67.50;98828.69;4263522;33;20159;-94
2024/01/17 10:59:33;;;;;;;32.08;27.02;;;;;;;1.15;67.20;98824.84;4262947;33;20169;-93
2024/01/17 11:02:18;;;;;;;40.30;28.67;;;;;;;1.02;67.31;98824.56;4263390;33;20136;-93
2024/01/17 11:04:55;;;;;;;36.53;29.85;;;;;;;0.96;67.83;98815.28;4263042;33;20140;-93
2024/01/17 11:07:28;;;;;;;31.05;23.67;;;;;;;0.42;69.22;98810.88;4262661;33;20176;-93
2024/01/17 11:10:02;;;;;;;33.55;24.67;;;;;;;0.81;68.38;98799.53;4262443;33;20172;-93
2024/01/17 11:12:33;;;;;;;38.95;26.05;;;;;;;1.16;67.08;98784.78;4262470;33;20141;-93
2024/01/17 11:15:04;;;;;;;35.13;26.73;;;;;;;0.52;69.04;98782.63;4261672;33;20157;-93
2024/01/17 11:17:39;;;;;;;32.13;24.08;;;;;;;0.61;69.28;98777.84;4261412;33;20433;-93
2024/01/17 11:20:13;;;;;;;31.12;24.60;;;;;;;1.04;67.44;98762.75;4261751;33;20140;-93
2024/01/17 11:22:48;;;;;;;36.15;26.15;;;;;;;0.67;69.23;98771.47;4260925;33;20144;-93
2024/01/17 11:25:23;;;;;;;31.90;24.30;;;;;;;0.98;68.69;98756.06;4260951;33;20149;-93
2024/01/17 11:28:04;;;;;;;31.98;24.33;;;;;;;0.85;68.92;98754.12;4265735;33;20156;-93
2024/01/17 11:30:52;;;;;;;38.92;25.50;;;;;;;0.44;70.04;98756.94;4273816;33;20165;-93
2024/01/17 11:33:22;;;;;;;38.55;28.00;;;;;;;0.53;70.33;98735.63;4271101;33;20149;-93
2024/01/17 11:35:56;;;;;;;49.58;30.83;;;;;;;0.65;69.73;98734.22;4260494;33;20471;-92
2024/01/17 11:38:33;;;;;;;50.15;29.60;;;;;;;0.81;69.46;98745.59;4247630;33;20172;-93
2024/01/17 11:41:09;;;;;;;38.00;27.30;;;;;;;1.11;68.16;98739.78;4247910;33;20205;-92
2024/01/17 11:43:42;;;;;;;36.03;25.30;;;;;;;1.13;67.87;98737.97;4261933;33;20156;-93
2024/01/17 11:46:12;;;;;;;50.45;34.13;;;;;;;0.96;68.25;98730.97;4261275;33;20137;-92
2024/01/17 11:48:42;;;;;;;47.95;32.00;;;;;;;1.04;68.20;98713.19;4249621;33;20168;-92
2024/01/17 11:51:21;;;;;;;59.80;34.33;;;;;;;0.84;69.17;98716.78;4261410;33;20177;-93
2024/01/17 11:53:53;;;;;;;53.90;35.90;;;;;;;0.53;70.41;98711.34;4262713;33;20220;-92
2024/01/17 11:56:22;;;;;;;48.67;32.80;;;;;;;0.55;70.51;98709.50;4262814;33;20169;-92
2024/01/17 11:58:53;;;;;;;43.08;27.45;;;;;;;1.16;68.68;98691.72;4273470;33;20172;-92
2024/01/17 12:01:39;;;;;;;48.80;30.33;;;;;;;1.24;68.09;98691.31;4276723;33;20160;-92
2024/01/17 12:04:11;;;;;;;61.85;38.20;;;;;;;1.16;68.24;98686.50;4271030;33;20160;-92
2024/01/17 12:06:43;;;;;;;73.25;40.80;;;;;;;1.43;67.23;98680.81;4262978;33;20143;-92
2024/01/17 12:09:18;;;;;;;73.70;44.33;;;;;;;0.96;68.45;98677.06;4262679;33;20160;-92
2024/01/17 12:11:54;;;;;;;86.10;46.30;;;;;;;1.22;67.95;98669.66;4262592;33;20152;-92
2024/01/17 12:14:24;;;;;;;85.07;47.17;;;;;;;1.27;68.16;98659.87;4262889;33;20156;-93
2024/01/17 12:16:53;;;;;;;53.25;32.97;;;;;;;1.49;67.47;98646.53;4262710;33;20506;-92
2024/01/17 12:19:23;;;;;;;49.83;35.20;;;;;;;1.33;67.71;98646.47;4262561;33;20140;-92
2024/01/17 12:21:54;;;;;;;45.17;32.85;;;;;;;0.79;69.48;98645.72;4262531;33;20132;-92
2024/01/17 12:24:24;;;;;;;43.78;32.28;;;;;;;0.97;69.06;98641.38;4262320;33;20156;-92
2024/01/17 12:27:15;;;;;;;41.53;30.20;;;;;;;1.05;69.28;98625.34;4263700;33;20160;-92
2024/01/17 12:29:47;;;;;;;39.10;29.50;;;;;;;1.30;68.16;98623.16;4276340;33;20160;-92
2024/01/17 12:32:18;;;;;;;41.70;29.48;;;;;;;1.37;67.59;98618.47;4275813;33;20172;-92
2024/01/17 12:34:49;;;;;;;41.70;29.50;;;;;;;1.37;67.65;98605.41;4269939;33;20183;-92
2024/01/17 12:37:25;;;;;;;35.50;25.60;;;;;;;1.29;67.68;98607.59;4262340;33;20152;-93
2024/01/17 12:39:55;;;;;;;35.95;26.37;;;;;;;1.17;67.93;98602.06;4262472;33;20145;-92
2024/01/17 12:42:31;;;;;;;40.97;29.95;;;;;;;1.22;67.79;98604.44;4262268;33;20152;-92
2024/01/17 12:45:01;;;;;;;44.33;26.30;;;;;;;1.15;68.53;98588.28;4262374;33;20160;-92
2024/01/17 12:47:31;;;;;;;37.83;27.83;;;;;;;1.11;69.03;98583.28;4262192;33;20164;-92
2024/01/17 12:50:01;;;;;;;38.22;27.92;;;;;;;1.15;68.56;98584.84;4249293;33;20141;-92
2024/01/17 12:52:35;;;;;;;43.40;27.60;;;;;;;1.27;68.46;98586.81;4261845;33;20140;-92
2024/01/17 12:55:06;;;;;;;38.75;27.30;;;;;;;1.57;67.20;98588.69;4260995;33;20136;-92
2024/01/17 12:57:38;;;;;;;35.03;27.60;;;;;;;1.28;68.46;98579.81;4264986;33;20152;-92
2024/01/17 13:02:48;;;;;;;40.05;29.02;;;;;;;1.51;67.81;98576.81;4276099;33;20401;-91
2024/01/17 13:05:23;;;;;;;37.90;26.15;;;;;;;1.36;68.22;98572.41;4272086;33;20144;-92
2024/01/17 13:08:06;;;;;;;44.15;28.98;;;;;;;1.01;69.48;98580.31;4261918;33;20175;-92
2024/01/17 13:10:41;;;;;;;35.97;26.12;;;;;;;1.31;68.62;98571.81;4248698;33;20148;-92
2024/01/17 13:13:11;;;;;;;48.53;27.45;;;;;;;1.25;68.63;98564.31;4261706;33;20137;-92
2024/01/17 13:15:52;;;;;;;42.55;28.48;;;;;;;1.35;68.17;98571.59;4261466;33;20156;-92
2024/01/17 13:18:22;;;;;;;37.35;26.73;;;;;;;1.35;68.23;98586.41;4261506;33;20140;-91
2024/01/17 13:20:53;;;;;;;41.72;26.90;;;;;;;1.23;68.73;98572.22;4261636;33;20140;-92
2024/01/17 13:23:29;;;;;;;35.25;27.67;;;;;;;1.08;69.47;98579.09;4261734;33;20525;-91
2024/01/17 13:25:59;;;;;;;39.35;25.67;;;;;;;1.45;68.19;98567.53;4247867;33;20870;-92
2024/01/17 13:28:31;;;;;;;40.30;28.77;;;;;;;1.62;67.61;98550.97;4257062;33;20139;-92
2024/01/17 13:31:01;;;;;;;37.20;26.12;;;;;;;1.07;69.32;98546.09;4275587;33;20128;-92
2024/01/17 13:33:30;;;;;;;40.65;27.10;;;;;;;1.65;67.60;98540.34;4275425;33;20152;-92
2024/01/17 13:36:04;;;;;;;43.33;27.37;;;;;;;1.63;67.35;98546.59;4271795;33;20137;-92
2024/01/17 13:38:36;;;;;;;40.08;28.27;;;;;;;1.73;67.37;98532.94;4261244;33;20191;-92
2024/01/17 13:41:05;;;;;;;43.55;26.02;;;;;;;1.29;68.63;98534.53;4261906;33;20152;-92
2024/01/17 13:43:34;;;;;;;40.45;26.20;;;;;;;1.62;68.07;98531.84;4261625;33;20180;-92
2024/01/17 13:46:16;;;;;;;38.47;27.13;;;;;;;1.54;67.86;98540.09;4261404;33;20153;-91
2024/01/17 13:48:46;;;;;;;41.50;28.08;;;;;;;1.56;68.38;98532.19;4261284;33;20149;-92
2024/01/17 13:51:17;;;;;;;44.72;28.50;;;;;;;1.44;68.56;98541.53;4261177;33;20155;-91
2024/01/17 13:53:53;;;;;;;36.25;26.35;;;;;;;1.29;69.52;98534.53;4261612;33;20541;-92
2024/01/17 13:56:23;;;;;;;41.92;28.98;;;;;;;1.13;70.32;98537.94;4261765;33;20177;-91
2024/01/17 13:58:52;;;;;;;40.80;28.75;;;;;;;0.96;70.88;98530.16;4272092;33;20521;-92
2024/01/17 14:01:21;;;;;;;40.12;27.20;;;;;;;1.36;70.05;98525.44;4274580;33;20140;-91
2024/01/17 14:03:51;;;;;;;41.15;29.23;;;;;;;1.15;70.81;98517.84;4275338;33;20180;-91
2024/01/17 14:06:20;;;;;;;36.85;28.30;;;;;;;1.00;71.80;98515.19;4268165;33;20180;-91
2024/01/17 14:08:56;;;;;;;44.42;30.20;;;;;;;1.45;70.74;98510.13;4260644;33;20735;-91
2024/01/17 14:11:25;;;;;;;39.25;27.95;;;;;;;1.18;71.62;98506.38;4261016;33;20841;-90
2024/01/17 14:13:54;;;;;;;45.20;29.50;;;;;;;1.13;72.37;98505.78;4260221;33;20550;-91
2024/01/17 14:16:24;;;;;;;45.25;30.80;;;;;;;0.88;73.67;98501.88;4260173;33;20149;-90
2024/01/17 14:18:58;;;;;;;43.47;31.98;;;;;;;1.02;73.72;98511.56;4260170;33;20161;-91
2024/01/17 14:21:27;;;;;;;51.78;32.28;;;;;;;0.88;74.00;98493.22;4260180;33;20172;-90
2024/01/17 14:23:57;;;;;;;46.17;31.95;;;;;;;1.41;72.63;98503.38;4260016;33;20180;-91